Time;durP1;ratioP1;P1;durP2;ratioP2;P2;SDS_P1;SDS_P2;PMS_P1;PMS_P2;Temp;Humidity;BMP_temperature;BMP_pressure;BME280_temperature;BME280_humidity;BME280_pressure;Samples;Min_cycle;Max_cycle;Signal;HPM_P1;HPM_P2
2021/03/28 00:01:19;;;;;;;24.20;5.30;;;8.20;99.90;;;;;;4991267;28;20639;-74
2021/03/28 00:03:56;;;;;;;31.53;5.67;;;8.30;99.90;;;;;;4981498;28;20196;-75
2021/03/28 00:06:28;;;;;;;25.60;5.17;;;8.30;99.90;;;;;;4981588;28;20215;-73
2021/03/28 00:09:09;;;;;;;29.07;6.27;;;8.30;99.90;;;;;;5000909;28;20557;-76
2021/03/28 00:11:50;;;;;;;24.60;5.03;;;8.30;99.90;;;;;;5000748;28;20227;-74
2021/03/28 00:14:17;;;;;;;25.27;4.40;;;8.30;99.90;;;;;;4993266;28;20218;-75
2021/03/28 00:16:47;;;;;;;28.50;5.93;;;8.30;99.90;;;;;;4981870;28;20211;-75
2021/03/28 00:19:24;;;;;;;33.40;6.27;;;8.30;99.90;;;;;;4964803;28;20240;-73
2021/03/28 00:21:54;;;;;;;27.73;5.37;;;8.30;99.90;;;;;;4963813;28;20547;-76
2021/03/28 00:24:25;;;;;;;26.33;4.80;;;8.20;99.90;;;;;;4963334;28;20216;-75
2021/03/28 00:27:07;;;;;;;26.67;5.53;;;8.30;99.90;;;;;;4962581;28;20755;-75
2021/03/28 00:29:47;;;;;;;32.53;5.33;;;8.20;99.90;;;;;;4962604;28;20624;-75
2021/03/28 00:32:20;;;;;;;37.13;6.07;;;8.20;99.90;;;;;;4979264;28;20231;-78
2021/03/28 00:34:50;;;;;;;23.57;4.97;;;8.20;99.90;;;;;;4981938;28;20208;-75
2021/03/28 00:37:22;;;;;;;21.43;5.30;;;8.20;99.90;;;;;;4968121;28;20200;-74
2021/03/28 00:39:52;;;;;;;24.93;5.77;;;8.10;99.90;;;;;;4963137;28;20283;-76
2021/03/28 00:42:28;;;;;;;27.30;5.67;;;8.10;99.90;;;;;;4963562;28;20204;-79
2021/03/28 00:45:00;;;;;;;19.93;5.47;;;8.10;99.90;;;;;;4964478;28;20204;-74
2021/03/28 00:47:31;;;;;;;25.43;4.97;;;8.10;99.90;;;;;;4966944;28;21007;-76
2021/03/28 00:50:12;;;;;;;20.93;5.20;;;8.10;99.90;;;;;;4967931;28;20201;-78
2021/03/28 00:52:50;;;;;;;32.20;5.20;;;8.10;99.90;;;;;;4966375;28;20212;-75
2021/03/28 00:55:20;;;;;;;23.83;5.50;;;8.10;99.90;;;;;;4966939;28;20192;-76
2021/03/28 00:58:02;;;;;;;27.57;5.50;;;8.00;99.90;;;;;;4967530;28;20483;-74
2021/03/28 01:00:50;;;;;;;26.80;5.80;;;8.10;99.90;;;;;;4967204;28;20243;-77
2021/03/28 01:03:33;;;;;;;24.90;5.57;;;8.00;99.90;;;;;;4966965;28;20212;-76
2021/03/28 01:06:06;;;;;;;33.60;5.40;;;8.00;99.90;;;;;;4967753;28;20219;-80
2021/03/28 01:08:39;;;;;;;21.60;4.93;;;8.00;99.90;;;;;;4965635;28;20251;-75
2021/03/28 01:11:12;;;;;;;25.70;5.13;;;8.00;99.90;;;;;;4966462;28;20236;-74
2021/03/28 01:14:03;;;;;;;25.50;5.27;;;8.00;99.90;;;;;;4966126;28;20223;-74
2021/03/28 01:17:09;;;;;;;23.47;5.30;;;8.00;99.90;;;;;;4965669;28;20235;-76
2021/03/28 01:20:08;;;;;;;25.83;6.00;;;7.90;99.90;;;;;;4966770;28;20192;-80
2021/03/28 01:22:44;;;;;;;24.30;5.47;;;7.90;99.90;;;;;;4966823;28;20345;-74
2021/03/28 01:25:31;;;;;;;25.30;5.97;;;7.90;99.90;;;;;;4966836;28;20208;-74
2021/03/28 01:28:12;;;;;;;28.70;5.03;;;7.90;99.90;;;;;;4967166;28;20193;-77
2021/03/28 01:30:43;;;;;;;23.87;5.33;;;7.90;99.90;;;;;;4967270;28;20287;-78
2021/03/28 01:33:15;;;;;;;24.27;5.77;;;7.90;99.90;;;;;;4966361;28;20863;-79
2021/03/28 01:36:05;;;;;;;23.50;5.43;;;7.80;99.90;;;;;;4976850;28;20246;-78
2021/03/28 01:38:36;;;;;;;20.47;5.67;;;7.80;99.90;;;;;;4984713;28;20231;-76
2021/03/28 01:41:07;;;;;;;25.53;5.23;;;7.80;99.90;;;;;;4967744;28;20197;-78
2021/03/28 01:43:43;;;;;;;22.57;4.30;;;7.80;99.90;;;;;;4966201;28;20217;-76
2021/03/28 01:46:17;;;;;;;17.10;4.50;;;7.80;99.90;;;;;;4967184;28;20224;-79
2021/03/28 01:48:53;;;;;;;31.20;6.17;;;7.80;99.90;;;;;;4967522;28;20212;-76
2021/03/28 01:51:53;;;;;;;20.73;4.90;;;7.80;99.90;;;;;;4966322;28;20228;-76
2021/03/28 01:54:31;;;;;;;25.00;5.73;;;7.80;99.90;;;;;;4966134;28;20220;-81
2021/03/28 01:57:03;;;;;;;33.40;5.27;;;7.80;99.90;;;;;;4965645;28;20511;-76
2021/03/28 01:59:40;;;;;;;19.77;4.60;;;7.80;99.90;;;;;;4966471;28;20213;-80
2021/03/28 02:02:33;;;;;;;25.17;5.57;;;7.80;99.90;;;;;;4966913;28;20224;-77
2021/03/28 02:05:14;;;;;;;25.10;5.30;;;7.80;99.90;;;;;;4967200;28;20205;-82
2021/03/28 02:07:56;;;;;;;28.87;4.90;;;7.80;99.90;;;;;;4965931;28;20200;-73
2021/03/28 02:10:43;;;;;;;21.90;5.63;;;7.80;99.90;;;;;;4966916;28;20663;-76
2021/03/28 02:13:23;;;;;;;24.73;4.97;;;7.80;99.90;;;;;;4965666;28;20200;-75
2021/03/28 02:16:08;;;;;;;21.97;4.90;;;7.80;99.90;;;;;;4963850;28;20212;-77
2021/03/28 02:18:55;;;;;;;24.37;4.90;;;7.80;99.90;;;;;;4966279;28;20810;-80
2021/03/28 02:21:32;;;;;;;25.50;4.90;;;7.80;99.90;;;;;;4967186;28;20200;-74
2021/03/28 02:24:12;;;;;;;16.43;3.90;;;7.80;99.90;;;;;;4965164;28;20562;-74
2021/03/28 02:26:44;;;;;;;14.67;4.47;;;7.80;99.90;;;;;;4964520;28;20205;-77
2021/03/28 02:29:24;;;;;;;19.30;4.27;;;7.70;99.90;;;;;;4964960;28;20204;-75
2021/03/28 02:32:04;;;;;;;21.20;4.43;;;7.70;99.90;;;;;;4965192;28;20228;-74
2021/03/28 02:34:37;;;;;;;25.60;5.10;;;7.70;99.90;;;;;;4964794;28;20200;-75
2021/03/28 02:37:11;;;;;;;25.80;4.90;;;7.70;99.90;;;;;;4966618;28;20205;-79
2021/03/28 02:39:44;;;;;;;31.33;4.43;;;7.70;99.90;;;;;;4964266;28;20209;-75
2021/03/28 02:42:20;;;;;;;20.13;4.20;;;7.70;99.90;;;;;;4966001;28;20304;-76
2021/03/28 02:44:54;;;;;;;22.43;4.60;;;7.70;99.90;;;;;;4965242;28;20204;-75
2021/03/28 02:47:58;;;;;;;22.63;4.53;;;7.70;99.90;;;;;;4965018;28;20200;-80
2021/03/28 02:50:40;;;;;;;22.33;4.50;;;7.80;99.90;;;;;;4963552;28;20504;-80
2021/03/28 02:53:20;;;;;;;25.97;4.23;;;7.80;99.90;;;;;;4963981;28;20609;-73
2021/03/28 02:56:06;;;;;;;22.10;4.87;;;7.70;99.90;;;;;;4964694;28;20271;-72
2021/03/28 02:58:53;;;;;;;18.80;4.70;;;7.70;99.90;;;;;;4962302;28;20204;-73
2021/03/28 03:01:33;;;;;;;13.93;3.80;;;7.70;99.90;;;;;;4963230;28;20228;-73
2021/03/28 03:04:27;;;;;;;22.87;4.67;;;7.70;99.90;;;;;;4963825;28;20212;-73
2021/03/28 03:07:18;;;;;;;19.27;4.30;;;7.70;99.90;;;;;;4968389;28;20204;-72
2021/03/28 03:10:03;;;;;;;13.77;3.50;;;7.80;99.90;;;;;;4938736;28;20958;-73
2021/03/28 03:12:47;;;;;;;19.47;4.00;;;7.70;99.90;;;;;;4963245;28;20599;-74
2021/03/28 03:15:23;;;;;;;13.63;4.13;;;7.70;99.90;;;;;;4963116;28;20204;-74
2021/03/28 03:18:41;;;;;;;21.43;4.20;;;7.70;99.90;;;;;;4968657;28;20243;-75
2021/03/28 03:21:59;;;;;;;20.17;3.93;;;7.80;99.90;;;;;;4940087;28;20211;-73
2021/03/28 03:24:58;;;;;;;23.83;4.47;;;7.80;99.90;;;;;;4981406;28;20795;-74
2021/03/28 03:28:01;;;;;;;12.60;3.43;;;7.80;99.90;;;;;;4982814;28;20188;-73
2021/03/28 03:30:49;;;;;;;13.30;3.03;;;7.80;99.90;;;;;;4981575;28;20200;-73
2021/03/28 03:33:44;;;;;;;21.87;4.00;;;7.80;99.90;;;;;;4982511;28;20617;-73
2021/03/28 03:36:22;;;;;;;19.33;3.87;;;7.90;99.90;;;;;;4982853;28;20228;-73
2021/03/28 03:39:11;;;;;;;20.63;3.63;;;7.90;99.90;;;;;;4982841;28;20266;-72
2021/03/28 03:41:55;;;;;;;18.43;5.70;;;7.90;99.90;;;;;;4981652;28;20235;-73
2021/03/28 03:44:32;;;;;;;11.43;2.97;;;7.90;99.90;;;;;;4982036;28;20917;-73
2021/03/28 03:47:17;;;;;;;16.37;4.20;;;7.90;99.90;;;;;;4982518;28;20971;-72
2021/03/28 03:50:12;;;;;;;18.63;3.70;;;7.80;99.90;;;;;;4981618;28;20208;-73
2021/03/28 03:53:07;;;;;;;16.80;3.90;;;7.80;99.90;;;;;;4982684;28;20204;-74
2021/03/28 03:55:41;;;;;;;17.43;3.03;;;7.80;99.90;;;;;;4981227;28;20235;-73
2021/03/28 03:58:19;;;;;;;21.67;3.70;;;7.80;99.90;;;;;;4981384;28;20227;-77
2021/03/28 04:00:55;;;;;;;12.13;3.00;;;7.80;99.90;;;;;;4981523;28;20263;-74
2021/03/28 04:03:30;;;;;;;11.53;2.57;;;7.90;99.90;;;;;;4982449;28;20200;-73
2021/03/28 04:06:16;;;;;;;17.83;4.23;;;7.90;99.90;;;;;;4982250;28;20203;-80
2021/03/28 04:08:57;;;;;;;13.20;3.17;;;7.90;99.90;;;;;;5001871;28;20199;-73
2021/03/28 04:11:46;;;;;;;17.00;4.20;;;7.90;99.90;;;;;;5001279;28;20231;-75
2021/03/28 04:14:25;;;;;;;15.33;3.73;;;7.90;99.90;;;;;;4989753;28;20218;-74
2021/03/28 04:17:04;;;;;;;10.83;3.27;;;7.80;99.90;;;;;;4981868;28;20207;-74
2021/03/28 04:19:36;;;;;;;16.10;3.23;;;7.90;99.90;;;;;;4981268;28;20239;-77
2021/03/28 04:22:26;;;;;;;17.77;3.33;;;7.90;99.90;;;;;;4982783;28;20208;-78
2021/03/28 04:25:07;;;;;;;19.57;3.97;;;7.90;99.90;;;;;;4980924;28;20671;-75
2021/03/28 04:27:44;;;;;;;19.07;3.03;;;7.90;99.90;;;;;;4980399;28;20200;-75
2021/03/28 04:30:31;;;;;;;16.10;3.23;;;8.00;99.90;;;;;;4980692;28;20215;-74
2021/03/28 04:33:05;;;;;;;13.97;3.57;;;8.00;99.90;;;;;;4980551;28;20905;-73
2021/03/28 04:35:56;;;;;;;15.37;4.20;;;8.00;99.90;;;;;;4981270;28;20204;-78
2021/03/28 04:38:34;;;;;;;16.70;2.87;;;7.90;99.90;;;;;;4981046;28;20562;-74
2021/03/28 04:41:21;;;;;;;12.17;3.90;;;7.90;99.90;;;;;;4981067;28;20207;-74
2021/03/28 04:44:19;;;;;;;14.87;3.67;;;7.90;99.90;;;;;;4978713;28;20600;-75
2021/03/28 04:47:23;;;;;;;14.53;3.67;;;7.90;99.90;;;;;;4981081;28;20616;-73
2021/03/28 04:49:59;;;;;;;13.27;2.83;;;7.90;99.90;;;;;;4981298;28;20211;-77
2021/03/28 04:53:05;;;;;;;13.47;3.03;;;7.90;99.90;;;;;;4980799;28;20254;-72
2021/03/28 04:56:03;;;;;;;14.57;3.20;;;7.90;99.90;;;;;;4998625;28;20218;-74
2021/03/28 04:58:54;;;;;;;16.43;3.60;;;7.90;99.90;;;;;;4991625;28;20211;-75
2021/03/28 05:01:36;;;;;;;14.50;3.33;;;7.90;99.90;;;;;;4981593;28;20216;-76
2021/03/28 05:04:35;;;;;;;12.10;2.90;;;7.90;99.90;;;;;;4981081;28;20196;-74
2021/03/28 05:07:37;;;;;;;8.37;2.87;;;7.90;99.90;;;;;;4987599;28;20208;-74
2021/03/28 05:10:37;;;;;;;17.93;4.20;;;7.90;99.90;;;;;;4982199;28;20531;-73
2021/03/28 05:13:55;;;;;;;16.03;3.73;;;8.00;99.90;;;;;;4981589;28;20196;-75
2021/03/28 05:17:00;;;;;;;15.37;3.90;;;8.00;99.90;;;;;;4981460;28;20262;-73
2021/03/28 05:20:16;;;;;;;13.27;2.97;;;8.00;99.90;;;;;;4980970;28;20235;-72
2021/03/28 05:23:08;;;;;;;18.60;3.30;;;8.10;99.90;;;;;;4980049;28;20200;-73
2021/03/28 05:26:04;;;;;;;10.97;3.20;;;8.10;99.90;;;;;;4980984;28;20207;-76
2021/03/28 05:28:56;;;;;;;13.80;3.33;;;8.10;99.90;;;;;;4982631;28;20200;-77
2021/03/28 05:32:14;;;;;;;14.20;3.13;;;8.10;99.90;;;;;;4982531;28;20234;-75
2021/03/28 05:35:25;;;;;;;16.50;3.43;;;8.20;99.90;;;;;;4981912;28;20203;-74
2021/03/28 05:38:22;;;;;;;19.80;3.90;;;8.20;99.90;;;;;;4981464;28;20879;-72
2021/03/28 05:41:19;;;;;;;17.67;3.33;;;8.30;99.90;;;;;;4984270;28;20208;-76
2021/03/28 05:44:17;;;;;;;17.23;3.40;;;8.30;99.90;;;;;;4985178;28;20196;-73
2021/03/28 05:47:24;;;;;;;29.23;4.77;;;8.30;99.90;;;;;;4984953;28;20208;-73
2021/03/28 05:49:58;;;;;;;19.73;3.70;;;8.40;99.90;;;;;;5004014;28;20556;-73
2021/03/28 05:52:59;;;;;;;18.13;3.67;;;8.40;99.90;;;;;;5004350;28;20278;-73
2021/03/28 05:55:53;;;;;;;16.73;3.83;;;8.40;99.90;;;;;;4951179;28;20212;-72
2021/03/28 05:58:49;;;;;;;15.63;2.97;;;8.40;99.90;;;;;;4976866;28;20860;-73
2021/03/28 06:01:32;;;;;;;15.73;3.80;;;8.50;99.90;;;;;;4984480;28;20294;-72
2021/03/28 06:04:32;;;;;;;22.13;3.60;;;8.50;99.90;;;;;;4984699;28;20203;-73
2021/03/28 06:07:32;;;;;;;11.97;2.77;;;8.60;99.90;;;;;;4989489;28;20207;-74
2021/03/28 06:10:42;;;;;;;13.63;3.30;;;8.60;99.90;;;;;;4996456;28;20465;-74
2021/03/28 06:14:02;;;;;;;14.57;3.37;;;8.70;99.90;;;;;;4983962;28;20211;-74
2021/03/28 06:16:42;;;;;;;15.30;3.30;;;8.70;99.90;;;;;;4948512;28;20200;-75
2021/03/28 06:19:37;;;;;;;17.67;3.27;;;8.60;99.90;;;;;;4983876;28;20244;-73
2021/03/28 06:23:02;;;;;;;15.20;3.80;;;8.70;99.90;;;;;;4984255;28;20211;-76
2021/03/28 06:26:13;;;;;;;10.53;2.73;;;8.70;99.90;;;;;;4980767;28;20195;-76
2021/03/28 06:29:30;;;;;;;10.63;3.27;;;8.80;99.90;;;;;;4967002;28;20216;-77
2021/03/28 06:32:38;;;;;;;15.07;3.30;;;8.90;99.90;;;;;;4907739;29;20414;-75
2021/03/28 06:35:49;;;;;;;18.20;3.53;;;9.00;99.90;;;;;;4983814;28;20208;-73
2021/03/28 06:38:38;;;;;;;11.73;3.00;;;9.10;99.90;;;;;;4982312;28;20219;-72
2021/03/28 06:41:39;;;;;;;12.90;3.40;;;9.20;99.90;;;;;;4984084;28;20282;-73
2021/03/28 06:44:32;;;;;;;11.87;3.77;;;9.20;99.90;;;;;;4946706;28;20222;-75
2021/03/28 06:47:35;;;;;;;10.60;2.73;;;9.20;99.90;;;;;;4984707;28;20207;-76
2021/03/28 06:50:33;;;;;;;11.57;3.33;;;9.30;99.90;;;;;;4984499;28;20200;-76
2021/03/28 06:53:22;;;;;;;14.33;3.37;;;9.30;99.90;;;;;;4983738;28;20324;-76
2021/03/28 06:56:10;;;;;;;14.87;2.80;;;9.40;99.90;;;;;;4983772;28;20200;-76
2021/03/28 06:59:17;;;;;;;15.20;3.07;;;9.40;99.90;;;;;;4984345;28;20203;-78
2021/03/28 07:02:07;;;;;;;14.20;2.87;;;9.50;99.90;;;;;;4983306;28;20511;-75
2021/03/28 07:05:08;;;;;;;10.03;2.93;;;9.60;99.90;;;;;;4983586;28;20638;-75
2021/03/28 07:08:13;;;;;;;12.10;3.00;;;9.60;99.90;;;;;;4984341;28;20211;-76
2021/03/28 07:11:06;;;;;;;12.43;3.17;;;9.70;99.90;;;;;;4983405;28;20214;-77
2021/03/28 07:14:02;;;;;;;12.13;2.70;;;9.70;99.90;;;;;;4982884;28;20428;-77
2021/03/28 07:17:23;;;;;;;10.67;3.37;;;9.70;99.90;;;;;;4982265;28;20196;-77
2021/03/28 07:20:10;;;;;;;15.03;3.53;;;9.80;99.90;;;;;;4967681;28;20215;-77
2021/03/28 07:23:00;;;;;;;14.33;3.53;;;9.80;99.90;;;;;;4982895;28;20254;-78
2021/03/28 07:25:53;;;;;;;12.13;3.83;;;9.90;99.90;;;;;;4944809;28;20212;-75
2021/03/28 07:29:02;;;;;;;13.63;3.23;;;10.10;99.90;;;;;;4981688;28;20262;-77
2021/03/28 07:32:09;;;;;;;14.93;4.70;;;10.10;99.90;;;;;;4982086;28;20239;-75
2021/03/28 07:35:21;;;;;;;9.87;2.73;;;10.20;99.90;;;;;;4995417;28;20215;-76
2021/03/28 07:38:29;;;;;;;13.13;2.97;;;10.20;99.90;;;;;;5002748;28;20207;-76
2021/03/28 07:41:27;;;;;;;11.50;3.53;;;10.30;99.90;;;;;;5002950;28;20203;-75
2021/03/28 07:44:30;;;;;;;11.67;3.30;;;10.40;99.90;;;;;;4996014;28;20479;-75
2021/03/28 07:47:15;;;;;;;14.30;3.87;;;10.40;99.90;;;;;;5002309;28;20756;-76
2021/03/28 07:50:15;;;;;;;13.00;3.63;;;10.50;99.90;;;;;;4986377;28;20216;-77
2021/03/28 07:53:03;;;;;;;17.23;4.73;;;10.60;99.90;;;;;;4982296;28;20224;-75
2021/03/28 07:55:31;;;;;;;10.03;3.47;;;10.70;99.90;;;;;;4981895;28;20243;-77
2021/03/28 07:58:19;;;;;;;12.93;4.07;;;10.70;99.90;;;;;;4982015;28;20501;-77
2021/03/28 08:01:14;;;;;;;15.53;3.70;;;10.70;99.90;;;;;;4981434;28;20307;-77
2021/03/28 08:04:05;;;;;;;11.00;3.70;;;10.60;99.90;;;;;;4981542;28;20214;-76
2021/03/28 08:06:52;;;;;;;17.20;4.90;;;10.50;99.90;;;;;;4983024;28;20218;-76
2021/03/28 08:09:47;;;;;;;11.10;3.50;;;10.50;99.90;;;;;;4981176;28;20210;-76
2021/03/28 08:12:44;;;;;;;11.73;3.97;;;10.40;99.90;;;;;;4984618;28;20227;-77
2021/03/28 08:15:35;;;;;;;12.53;3.23;;;10.40;99.90;;;;;;5002307;28;20417;-76
2021/03/28 08:18:29;;;;;;;13.53;3.73;;;10.30;99.90;;;;;;4981551;28;20243;-77
2021/03/28 08:21:03;;;;;;;16.13;3.47;;;10.30;99.90;;;;;;4989990;28;20492;-76
2021/03/28 08:24:18;;;;;;;9.77;3.40;;;10.30;99.90;;;;;;5001772;28;20207;-76
2021/03/28 08:26:58;;;;;;;18.53;3.97;;;10.30;99.90;;;;;;5001517;28;20203;-76
2021/03/28 08:29:34;;;;;;;19.10;4.70;;;10.40;99.90;;;;;;4983413;28;20242;-77
2021/03/28 08:32:17;;;;;;;10.87;3.87;;;10.40;99.90;;;;;;5001435;28;20230;-76
2021/03/28 08:35:20;;;;;;;10.47;3.57;;;10.30;99.90;;;;;;4981527;28;20212;-77
2021/03/28 08:38:35;;;;;;;11.70;3.30;;;10.30;99.90;;;;;;4962265;28;20537;-77
2021/03/28 08:41:40;;;;;;;18.67;5.07;;;10.30;99.90;;;;;;4949567;28;20200;-76
2021/03/28 08:44:45;;;;;;;17.17;3.80;;;10.40;99.90;;;;;;4993976;28;20914;-76
2021/03/28 08:47:56;;;;;;;15.13;4.00;;;10.40;99.90;;;;;;5000387;28;20199;-77
2021/03/28 08:50:35;;;;;;;20.07;3.93;;;10.50;99.90;;;;;;4998498;28;20195;-76
2021/03/28 08:53:26;;;;;;;18.03;3.50;;;10.50;99.90;;;;;;5001502;28;20231;-76
2021/03/28 08:56:25;;;;;;;22.83;4.37;;;10.50;99.90;;;;;;4989135;28;20208;-76
2021/03/28 08:58:56;;;;;;;14.67;3.50;;;10.50;99.90;;;;;;4974715;28;20338;-76
2021/03/28 09:01:45;;;;;;;16.40;3.90;;;10.60;99.90;;;;;;4982201;28;20234;-76
2021/03/28 09:04:16;;;;;;;19.13;3.63;;;10.60;99.90;;;;;;4979748;28;20204;-76
2021/03/28 09:06:55;;;;;;;13.40;3.80;;;10.60;99.90;;;;;;5000951;28;20219;-76
2021/03/28 09:09:39;;;;;;;11.03;4.03;;;10.60;99.90;;;;;;4993911;28;20200;-75
2021/03/28 09:12:20;;;;;;;13.80;3.60;;;10.60;99.90;;;;;;4985429;28;20231;-74
2021/03/28 09:15:09;;;;;;;20.07;4.27;;;10.60;99.90;;;;;;4984591;28;20286;-76
2021/03/28 09:17:50;;;;;;;13.47;3.70;;;10.60;99.90;;;;;;4984849;28;20244;-78
2021/03/28 09:20:31;;;;;;;17.37;3.63;;;10.60;99.90;;;;;;4984804;28;20250;-77
2021/03/28 09:23:16;;;;;;;18.20;4.83;;;10.60;99.90;;;;;;4985009;28;20195;-75
2021/03/28 09:25:55;;;;;;;21.43;4.53;;;10.60;99.90;;;;;;4991750;28;20743;-77
2021/03/28 09:28:30;;;;;;;19.50;4.20;;;10.60;99.90;;;;;;4999967;28;20192;-76
2021/03/28 09:31:04;;;;;;;18.10;4.40;;;10.60;99.90;;;;;;4984503;28;20580;-77
2021/03/28 09:33:43;;;;;;;19.17;3.73;;;10.60;99.90;;;;;;4983829;28;20788;-75
2021/03/28 09:36:34;;;;;;;17.13;3.90;;;10.60;99.90;;;;;;4984078;28;20203;-75
2021/03/28 09:39:33;;;;;;;20.13;4.00;;;10.60;99.90;;;;;;4985181;28;20200;-78
2021/03/28 09:42:35;;;;;;;24.87;4.87;;;10.50;99.90;;;;;;4984558;28;20200;-76
2021/03/28 09:45:38;;;;;;;18.87;4.77;;;10.50;99.90;;;;;;5004214;28;20222;-76
2021/03/28 09:48:43;;;;;;;18.37;4.00;;;10.40;99.90;;;;;;5003485;28;20206;-76
2021/03/28 09:51:49;;;;;;;20.63;4.50;;;10.30;99.90;;;;;;4936756;28;20270;-77
2021/03/28 09:54:35;;;;;;;23.67;6.10;;;10.30;99.90;;;;;;4980803;28;20207;-78
2021/03/28 09:57:32;;;;;;;21.40;4.67;;;10.30;99.90;;;;;;4984242;28;20204;-77
2021/03/28 10:00:29;;;;;;;22.43;5.70;;;10.20;99.90;;;;;;4978169;28;20215;-79
2021/03/28 10:03:13;;;;;;;22.30;4.87;;;10.10;99.90;;;;;;4983651;28;20619;-77
2021/03/28 10:05:41;;;;;;;18.63;5.30;;;10.10;99.90;;;;;;4983451;28;20222;-78
2021/03/28 10:08:10;;;;;;;21.03;5.10;;;10.20;99.90;;;;;;4984478;28;20208;-79
2021/03/28 10:11:00;;;;;;;23.27;5.97;;;10.20;99.90;;;;;;4983639;28;20207;-77
2021/03/28 10:13:51;;;;;;;23.43;5.10;;;10.20;99.90;;;;;;4983930;28;20286;-76
2021/03/28 10:16:23;;;;;;;17.17;4.47;;;10.20;99.90;;;;;;4983766;28;20664;-77
2021/03/28 10:19:19;;;;;;;18.70;4.60;;;10.30;99.90;;;;;;4983708;28;20318;-75
2021/03/28 10:22:03;;;;;;;18.53;5.23;;;10.30;99.90;;;;;;4983917;28;20198;-79
2021/03/28 10:24:56;;;;;;;16.97;4.63;;;10.30;99.90;;;;;;4983784;28;20212;-77
2021/03/28 10:27:46;;;;;;;17.33;6.07;;;10.30;99.90;;;;;;4941138;28;20687;-75
2021/03/28 10:30:21;;;;;;;17.80;4.20;;;10.40;99.90;;;;;;4983829;28;20611;-77
2021/03/28 10:33:03;;;;;;;23.20;4.43;;;10.40;99.90;;;;;;4994417;28;20234;-76
2021/03/28 10:35:53;;;;;;;21.90;5.60;;;10.50;99.90;;;;;;5003007;28;20208;-76
2021/03/28 10:38:52;;;;;;;31.40;4.77;;;10.60;99.90;;;;;;4997767;28;20207;-77
2021/03/28 10:41:42;;;;;;;22.27;4.60;;;10.70;99.90;;;;;;4991935;28;20212;-76
2021/03/28 10:44:22;;;;;;;26.63;6.33;;;10.70;99.90;;;;;;4983971;28;20196;-78
2021/03/28 10:47:22;;;;;;;23.10;5.43;;;10.70;99.90;;;;;;4991421;28;20208;-77
2021/03/28 10:50:34;;;;;;;20.07;5.43;;;10.70;99.90;;;;;;4982741;28;20742;-78
2021/03/28 10:53:38;;;;;;;22.17;5.13;;;10.60;99.90;;;;;;4941698;28;20239;-76
2021/03/28 10:56:35;;;;;;;19.77;4.40;;;10.60;99.90;;;;;;4983477;28;20246;-75
2021/03/28 10:59:29;;;;;;;19.83;4.93;;;10.60;99.90;;;;;;4983094;28;20518;-76
2021/03/28 11:02:35;;;;;;;25.20;5.23;;;10.50;99.90;;;;;;4983714;28;20215;-76
2021/03/28 11:05:45;;;;;;;21.77;4.60;;;10.50;99.90;;;;;;4983144;28;20208;-75
2021/03/28 11:08:35;;;;;;;23.57;4.60;;;10.50;99.90;;;;;;4987351;28;20540;-78
2021/03/28 11:11:24;;;;;;;21.50;4.00;;;10.60;99.90;;;;;;4970679;28;20200;-76
2021/03/28 11:14:13;;;;;;;25.03;4.27;;;10.60;99.90;;;;;;4982908;28;20211;-77
2021/03/28 11:16:58;;;;;;;24.60;6.27;;;10.70;99.90;;;;;;4983290;28;20204;-76
2021/03/28 11:20:01;;;;;;;23.73;4.40;;;10.70;99.90;;;;;;4982279;28;20231;-78
2021/03/28 11:22:42;;;;;;;19.63;5.00;;;10.60;99.90;;;;;;4981997;28;20235;-76
2021/03/28 11:25:22;;;;;;;21.47;4.70;;;10.60;99.90;;;;;;4983381;28;20319;-79
2021/03/28 11:28:35;;;;;;;18.60;5.10;;;10.60;99.90;;;;;;4982609;28;20211;-77
2021/03/28 11:31:30;;;;;;;23.07;4.87;;;10.60;99.90;;;;;;4981181;28;20306;-77
2021/03/28 11:34:01;;;;;;;20.87;5.10;;;10.50;99.90;;;;;;4981912;28;20197;-77
2021/03/28 11:36:30;;;;;;;16.83;4.80;;;10.50;99.90;;;;;;4981241;28;20214;-76
2021/03/28 11:39:25;;;;;;;17.33;5.43;;;10.50;99.90;;;;;;4982056;28;20208;-76
2021/03/28 11:42:24;;;;;;;19.80;5.20;;;10.60;99.90;;;;;;4981656;28;20231;-79
2021/03/28 11:45:31;;;;;;;28.27;6.03;;;10.60;99.90;;;;;;4982283;28;20386;-76
2021/03/28 11:47:59;;;;;;;30.63;5.63;;;10.60;99.90;;;;;;4982674;28;20204;-77
2021/03/28 11:50:37;;;;;;;23.00;5.63;;;10.60;99.90;;;;;;4981756;28;20266;-80
2021/03/28 11:53:19;;;;;;;26.70;4.90;;;10.70;99.90;;;;;;4981885;28;20943;-78
2021/03/28 11:55:51;;;;;;;22.07;5.77;;;10.70;99.90;;;;;;4981739;28;20618;-76
2021/03/28 11:58:57;;;;;;;20.27;5.73;;;10.80;99.90;;;;;;4981339;28;20647;-76
2021/03/28 12:02:02;;;;;;;23.63;5.40;;;10.80;99.90;;;;;;4958663;28;20255;-76
2021/03/28 12:04:30;;;;;;;25.30;5.43;;;10.80;99.90;;;;;;4978236;28;20269;-77
2021/03/28 12:07:12;;;;;;;20.10;5.00;;;10.80;99.90;;;;;;5001270;28;20629;-77
2021/03/28 12:09:39;;;;;;;21.27;5.40;;;10.80;99.90;;;;;;5001162;28;20307;-79
2021/03/28 12:12:27;;;;;;;23.60;5.53;;;10.80;99.90;;;;;;5001350;28;20227;-75
2021/03/28 12:14:54;;;;;;;33.13;6.30;;;10.90;99.90;;;;;;4983330;28;20230;-76
2021/03/28 12:17:30;;;;;;;27.33;6.73;;;11.00;99.90;;;;;;4980310;28;20727;-75
2021/03/28 12:20:14;;;;;;;31.87;7.80;;;11.00;99.90;;;;;;4981276;28;20290;-77
2021/03/28 12:22:56;;;;;;;26.53;6.67;;;11.00;99.90;;;;;;4982026;28;20204;-76
2021/03/28 12:25:36;;;;;;;25.37;7.13;;;11.00;99.90;;;;;;4981003;28;20218;-77
2021/03/28 12:28:31;;;;;;;23.97;6.93;;;11.00;99.90;;;;;;4982028;28;20303;-76
2021/03/28 12:31:18;;;;;;;22.47;6.60;;;10.90;99.90;;;;;;4981511;28;20207;-77
2021/03/28 12:33:55;;;;;;;24.50;5.63;;;10.90;99.90;;;;;;4982034;28;20283;-75
2021/03/28 12:36:23;;;;;;;34.40;7.57;;;10.90;99.90;;;;;;4981568;28;20266;-77
2021/03/28 12:39:08;;;;;;;28.97;5.87;;;10.90;99.90;;;;;;4980875;28;20285;-75
2021/03/28 12:41:36;;;;;;;26.93;4.97;;;10.80;99.90;;;;;;4983211;28;20204;-75
2021/03/28 12:44:31;;;;;;;19.50;5.57;;;10.80;99.90;;;;;;4985409;28;20522;-75
2021/03/28 12:47:07;;;;;;;25.73;5.57;;;10.80;99.90;;;;;;4985918;28;20207;-76
2021/03/28 12:49:44;;;;;;;30.60;5.23;;;10.70;99.90;;;;;;4985382;28;20218;-77
2021/03/28 12:52:46;;;;;;;28.80;6.30;;;10.70;99.90;;;;;;4985229;28;20254;-76
2021/03/28 12:55:33;;;;;;;23.33;5.30;;;10.70;99.90;;;;;;4982714;28;20203;-76
2021/03/28 12:58:17;;;;;;;26.07;5.67;;;10.80;99.90;;;;;;4982121;28;20211;-75
2021/03/28 13:00:50;;;;;;;29.13;6.40;;;10.70;99.90;;;;;;4985291;28;20224;-77
2021/03/28 13:03:31;;;;;;;29.60;6.53;;;10.70;99.90;;;;;;4985544;28;20608;-76
2021/03/28 13:06:18;;;;;;;29.57;5.83;;;10.70;99.90;;;;;;4985338;28;20902;-76
2021/03/28 13:08:49;;;;;;;21.07;4.60;;;10.70;99.90;;;;;;4985931;28;20613;-76
2021/03/28 13:11:17;;;;;;;30.33;6.20;;;10.70;99.90;;;;;;4985574;28;20256;-75
2021/03/28 13:13:47;;;;;;;23.03;5.63;;;10.60;99.90;;;;;;4984591;28;20208;-77
2021/03/28 13:16:26;;;;;;;29.83;6.37;;;10.70;99.90;;;;;;4985512;28;20223;-77
2021/03/28 13:18:54;;;;;;;22.83;6.37;;;10.70;99.90;;;;;;4985668;28;20762;-78
2021/03/28 13:21:24;;;;;;;24.27;6.17;;;10.80;99.90;;;;;;4983715;28;20208;-77
2021/03/28 13:24:01;;;;;;;21.97;5.00;;;10.80;99.90;;;;;;4984569;28;20204;-77
2021/03/28 13:26:29;;;;;;;21.37;5.70;;;10.90;99.90;;;;;;4984406;28;20235;-76
2021/03/28 13:29:00;;;;;;;24.83;5.57;;;10.90;99.90;;;;;;4985029;28;20208;-78
2021/03/28 13:31:45;;;;;;;26.27;5.30;;;11.00;99.90;;;;;;4985214;28;20204;-78
2021/03/28 13:34:31;;;;;;;30.20;5.47;;;11.00;99.90;;;;;;4983024;28;20262;-78
2021/03/28 13:37:32;;;;;;;25.33;5.03;;;11.10;99.90;;;;;;5000930;28;20242;-80
2021/03/28 13:40:03;;;;;;;20.03;5.40;;;11.20;99.90;;;;;;5006714;28;20296;-79
2021/03/28 13:42:32;;;;;;;28.77;6.73;;;11.20;99.90;;;;;;4985260;28;20220;-78
2021/03/28 13:45:07;;;;;;;31.13;6.47;;;11.20;99.90;;;;;;4985896;28;20204;-80
2021/03/28 13:47:38;;;;;;;31.70;5.87;;;11.20;99.90;;;;;;4985223;28;20515;-79
2021/03/28 13:50:34;;;;;;;21.03;5.77;;;11.30;99.90;;;;;;4985689;28;20218;-78
2021/03/28 13:53:04;;;;;;;22.60;5.37;;;11.20;99.90;;;;;;4984178;28;20232;-78
2021/03/28 13:55:38;;;;;;;29.83;5.97;;;11.20;99.90;;;;;;4984003;28;20200;-77
2021/03/28 13:58:24;;;;;;;23.47;5.17;;;11.10;99.90;;;;;;4984044;28;20219;-77
2021/03/28 14:00:55;;;;;;;22.63;5.30;;;11.10;99.90;;;;;;4984593;28;20435;-79
2021/03/28 14:03:29;;;;;;;26.27;5.10;;;11.00;99.90;;;;;;4983207;28;20207;-77
2021/03/28 14:05:58;;;;;;;21.17;6.00;;;10.90;99.90;;;;;;4985361;28;20304;-78
2021/03/28 14:08:27;;;;;;;21.33;5.10;;;10.80;99.90;;;;;;5002883;28;20207;-78
2021/03/28 14:10:57;;;;;;;35.13;6.67;;;10.80;99.90;;;;;;4989064;28;20208;-77
2021/03/28 14:13:28;;;;;;;29.73;6.90;;;10.70;99.90;;;;;;4984425;28;20375;-78
2021/03/28 14:16:08;;;;;;;20.77;5.03;;;10.70;99.90;;;;;;4984198;28;20219;-78
2021/03/28 14:18:37;;;;;;;24.57;6.37;;;10.70;99.90;;;;;;4983495;28;20243;-78
2021/03/28 14:21:27;;;;;;;30.90;7.40;;;10.70;99.90;;;;;;4983117;28;20303;-79
2021/03/28 14:24:00;;;;;;;28.83;5.50;;;10.70;99.90;;;;;;4979535;28;20207;-78